Lewiston, Minnesota
Current Conditions -  °F | °C
As of 2:54 AM on Saturday 22 Nov 2014 (Local Time) from KONA Reporting Station
Overcast Overcast  
Wind Chill: 36°   Ceiling: 1700
Heat Index: 36°   Visibility: 7mi
Dew Point: 30°   Wind: 3mph
Humidity: 81%   Direction: 220°SW
Pressure: 29.93"   Gusts: NA
Location:  43.98°N, 91.87°W
Report Text: KONA 220854Z AUTO 22003KT 7SM OVC017 02/M01 A2993 RMK AO2
Loading
Personal Weather Stations






























Interactive Weather Map New forecast layout! Learn more

10-Day Weather Forecast

Advertisements
Track Severe Weather on mobile